createdAt,value
2017-07-22T00:00:12.286Z,999.85
2017-07-22T00:02:36.572Z,999.83
2017-07-22T00:05:00.860Z,999.84
2017-07-22T00:07:25.147Z,999.85
2017-07-22T00:09:40.985Z,999.79
2017-07-22T00:11:56.719Z,999.75
2017-07-22T00:14:20.902Z,999.75
2017-07-22T00:16:45.199Z,999.75
2017-07-22T00:19:01.086Z,999.74
2017-07-22T00:21:16.924Z,999.8
2017-07-22T00:23:41.143Z,999.77
2017-07-22T00:26:05.441Z,999.77
2017-07-22T00:28:29.731Z,999.73
2017-07-22T00:30:54.021Z,999.68
2017-07-22T00:33:18.302Z,999.68
2017-07-22T00:35:42.591Z,999.71
2017-07-22T00:38:06.878Z,999.68
2017-07-22T00:40:31.064Z,999.74
2017-07-22T00:42:55.238Z,999.73
2017-07-22T00:45:19.523Z,999.65
2017-07-22T00:47:43.822Z,999.63
2017-07-22T00:50:08.109Z,999.64
2017-07-22T00:52:32.396Z,999.64
2017-07-22T00:54:56.679Z,999.6
2017-07-22T00:57:12.549Z,999.58
2017-07-22T00:59:28.272Z,999.56
2017-07-22T01:01:29.683Z,999.52
2017-07-22T01:03:45.441Z,999.4
2017-07-22T01:06:09.632Z,999.37
2017-07-22T01:08:33.816Z,999.36
2017-07-22T01:10:49.518Z,999.42
2017-07-22T01:13:13.628Z,999.37
2017-07-22T01:15:29.356Z,999.38
2017-07-22T01:17:53.547Z,999.31
2017-07-22T01:20:17.780Z,999.35
2017-07-22T01:22:33.618Z,999.34
2017-07-22T01:24:57.853Z,999.35
2017-07-22T01:27:22.141Z,999.37
2017-07-22T01:29:46.321Z,999.39
2017-07-22T01:32:10.619Z,999.4
2017-07-22T01:34:34.788Z,999.42
2017-07-22T01:36:58.974Z,999.39
2017-07-22T01:39:23.169Z,999.33
2017-07-22T01:41:47.459Z,999.34
2017-07-22T01:44:11.747Z,999.33
2017-07-22T01:46:36.021Z,999.33
2017-07-22T01:49:00.319Z,999.36
2017-07-22T01:51:24.498Z,999.39
2017-07-22T01:53:40.304Z,999.38
2017-07-22T01:56:04.475Z,999.33
2017-07-22T01:58:20.257Z,999.27
2017-07-22T02:00:13.214Z,999.28
2017-07-22T02:02:37.394Z,999.27
2017-07-22T02:05:01.574Z,999.3
2017-07-22T02:07:25.864Z,999.33
2017-07-22T02:09:33.202Z,999.33
2017-07-22T02:11:48.937Z,999.32
2017-07-22T02:14:13.227Z,999.33
2017-07-22T02:16:37.516Z,999.35
2017-07-22T02:18:53.302Z,999.31
2017-07-22T02:21:17.489Z,999.34
2017-07-22T02:23:33.240Z,999.32
2017-07-22T02:25:57.456Z,999.32
2017-07-22T02:28:21.740Z,999.33
2017-07-22T02:30:45.897Z,999.34
2017-07-22T02:33:01.716Z,999.34
2017-07-22T02:35:26.004Z,999.32
2017-07-22T02:37:50.282Z,999.36
2017-07-22T02:40:14.572Z,999.39
2017-07-22T02:42:38.748Z,999.37
2017-07-22T02:45:02.937Z,999.37
2017-07-22T02:47:18.678Z,999.35
2017-07-22T02:49:26.063Z,999.38
2017-07-22T02:51:27.470Z,999.39
2017-07-22T02:53:20.396Z,999.37
2017-07-22T02:55:36.137Z,999.39
2017-07-22T02:58:00.244Z,999.41
2017-07-22T03:00:24.391Z,999.49
2017-07-22T03:02:48.533Z,999.44
2017-07-22T03:05:12.661Z,999.44
2017-07-22T03:07:28.383Z,999.47
2017-07-22T03:09:44.096Z,999.53
2017-07-22T03:12:08.296Z,999.54
2017-07-22T03:14:32.478Z,999.6
2017-07-22T03:16:56.673Z,999.68
2017-07-22T03:19:20.956Z,999.68
2017-07-22T03:21:45.093Z,999.71
2017-07-22T03:24:09.317Z,999.69
2017-07-22T03:26:16.607Z,999.69
2017-07-22T03:28:40.884Z,999.72
2017-07-22T03:31:05.176Z,999.74
2017-07-22T03:33:20.971Z,999.77
2017-07-22T03:35:45.254Z,999.81
2017-07-22T03:38:09.541Z,999.83
2017-07-22T03:40:33.710Z,999.82
2017-07-22T03:42:49.462Z,999.8
2017-07-22T03:44:56.793Z,999.83
2017-07-22T03:47:20.976Z,999.87
2017-07-22T03:49:45.164Z,999.82
2017-07-22T03:52:09.350Z,999.84
2017-07-22T03:54:33.509Z,999.86
2017-07-22T03:56:43.477Z,999.91
2017-07-22T03:59:07.656Z,999.96
2017-07-22T04:01:31.834Z,1000.03
2017-07-22T04:03:55.999Z,1000.01
2017-07-22T04:06:20.178Z,1000.05
2017-07-22T04:08:30.136Z,1000.07
2017-07-22T04:10:45.850Z,1000.12
2017-07-22T04:13:10.010Z,1000.08
2017-07-22T04:15:25.705Z,1000.09
2017-07-22T04:17:49.918Z,999.99
2017-07-22T04:20:14.090Z,999.96
2017-07-22T04:22:29.826Z,999.94
2017-07-22T04:24:54.064Z,999.97
2017-07-22T04:27:18.223Z,999.99
2017-07-22T04:29:42.432Z,1000
2017-07-22T04:32:06.573Z,1000.03
2017-07-22T04:34:30.800Z,1000.04
2017-07-22T04:36:54.918Z,1000.11
2017-07-22T04:39:19.172Z,1000.17
2017-07-22T04:41:43.357Z,1000.19
2017-07-22T04:43:59.213Z,1000.18
2017-07-22T04:46:23.437Z,1000.19
2017-07-22T04:48:47.705Z,1000.22
2017-07-22T04:51:12.017Z,1000.26
2017-07-22T04:53:13.436Z,1000.25
2017-07-22T04:55:37.659Z,1000.24
2017-07-22T04:58:01.844Z,1000.22
2017-07-22T05:00:26.013Z,1000.19
2017-07-22T05:02:50.267Z,1000.21
2017-07-22T05:05:14.516Z,1000.21
2017-07-22T05:07:30.392Z,1000.25
2017-07-22T05:09:46.227Z,1000.39
2017-07-22T05:12:02.138Z,1000.38
2017-07-22T05:14:18.126Z,1000.29
2017-07-22T05:16:42.821Z,1000.46
2017-07-22T05:18:59.009Z,1000.41
2017-07-22T05:21:23.847Z,1000.55
2017-07-22T05:23:48.753Z,1000.42
2017-07-22T05:26:13.611Z,1000.44
2017-07-22T05:28:15.698Z,1000.58
2017-07-22T05:30:40.763Z,1000.63
2017-07-22T05:33:05.908Z,1000.67
2017-07-22T05:35:31.281Z,1000.47
2017-07-22T05:37:56.767Z,1000.5
2017-07-22T05:40:13.763Z,1000.55
2017-07-22T05:42:30.600Z,1000.53
2017-07-22T05:44:55.855Z,1000.49
2017-07-22T05:47:12.544Z,1000.66
2017-07-22T05:49:37.902Z,1000.69
2017-07-22T05:51:54.825Z,1000.82
2017-07-22T05:54:11.885Z,1000.64
2017-07-22T05:56:37.614Z,1000.89
2017-07-22T05:59:06.041Z,1000.81
2017-07-22T06:01:29.412Z,1000.95
2017-07-22T06:03:55.570Z,1000.9
2017-07-22T06:06:22.061Z,1000.95
2017-07-22T06:08:48.512Z,1001.01
2017-07-22T06:11:15.508Z,1001.02
2017-07-22T06:13:42.282Z,1001.02
2017-07-22T06:16:09.115Z,1001.05
2017-07-22T06:18:36.186Z,1001.14
2017-07-22T06:21:03.356Z,1001.16
2017-07-22T06:23:30.536Z,1001.07
2017-07-22T06:25:57.913Z,1001.13
2017-07-22T06:28:25.276Z,1001.13
2017-07-22T06:30:52.669Z,1001.11
2017-07-22T06:32:54.908Z,1001.18
2017-07-22T06:35:13.774Z,1001.2
2017-07-22T06:39:43.503Z,1001.2
2017-07-22T06:42:11.169Z,1001.21
2017-07-22T06:44:38.890Z,1001.22
2017-07-22T06:47:06.671Z,1001.3
2017-07-22T06:49:34.561Z,1001.31
2017-07-22T06:52:02.425Z,1001.36
2017-07-22T06:54:30.314Z,1001.45
2017-07-22T06:56:58.264Z,1001.4
2017-07-22T06:59:26.117Z,1001.4
2017-07-22T07:01:54.013Z,1001.42
2017-07-22T07:04:21.893Z,1001.43
2017-07-22T07:06:42.781Z,1001.38
2017-07-22T07:08:53.706Z,1001.42
2017-07-22T07:11:21.093Z,1001.51
2017-07-22T07:13:48.228Z,1001.49
2017-07-22T07:16:15.142Z,1001.47
2017-07-22T07:18:42.903Z,1001.51
2017-07-22T07:20:45.282Z,1001.6
2017-07-22T07:23:12.857Z,1001.6
2017-07-22T07:25:49.810Z,1001.6
2017-07-22T07:28:15.995Z,1001.57
2017-07-22T07:30:42.157Z,1001.6
2017-07-22T07:33:08.323Z,1001.6
2017-07-22T07:35:34.316Z,1001.64
2017-07-22T07:38:00.337Z,1001.64
2017-07-22T07:40:26.258Z,1001.56
2017-07-22T07:42:53.128Z,1001.56
2017-07-22T07:45:10.451Z,1001.54
2017-07-22T07:47:27.811Z,1001.5
2017-07-22T07:49:53.706Z,1001.58
2017-07-22T07:52:11.171Z,1001.55
2017-07-22T07:54:37.258Z,1001.59
2017-07-22T07:56:54.818Z,1001.57
2017-07-22T07:59:20.922Z,1001.58
2017-07-22T08:01:38.450Z,1001.57
2017-07-22T08:04:04.535Z,1001.52
2017-07-22T08:06:30.674Z,1001.54
2017-07-22T08:08:56.856Z,1001.55
2017-07-22T08:11:23.092Z,1001.52
2017-07-22T08:13:49.339Z,1001.52
2017-07-22T08:16:18.612Z,1001.53
2017-07-22T08:18:47.893Z,1001.63
2017-07-22T08:21:14.205Z,1001.55
2017-07-22T08:23:40.566Z,1001.54
2017-07-22T08:26:06.879Z,1001.54
2017-07-22T08:28:33.871Z,1001.52
2017-07-22T08:31:00.369Z,1001.59
2017-07-22T08:33:26.871Z,1001.52
2017-07-22T08:35:53.249Z,1001.49
2017-07-22T08:38:20.236Z,1001.57
2017-07-22T08:40:46.630Z,1001.59
2017-07-22T08:43:12.789Z,1001.53
2017-07-22T08:45:38.978Z,1001.4
2017-07-22T08:47:56.535Z,1001.34
2017-07-22T08:49:58.897Z,1001.34
2017-07-22T08:52:24.894Z,1001.36
2017-07-22T08:54:50.715Z,1001.39
2017-07-22T08:57:16.494Z,1001.41
2017-07-22T08:59:42.211Z,1001.6
2017-07-22T09:02:07.907Z,1001.6
2017-07-22T09:04:33.702Z,1001.6
2017-07-22T09:06:59.563Z,1001.6
2017-07-22T09:09:25.390Z,1001.61
2017-07-22T09:11:51.186Z,1001.59
2017-07-22T09:14:01.679Z,1001.55
2017-07-22T09:16:27.559Z,1001.53
2017-07-22T09:18:53.690Z,1001.53
2017-07-22T09:21:19.717Z,1001.49
2017-07-22T09:23:45.835Z,1001.55
2017-07-22T09:26:12.185Z,1001.57
2017-07-22T09:28:41.770Z,1001.33
2017-07-22T09:31:07.795Z,1001.52
2017-07-22T09:35:10.127Z,1001.36
2017-07-22T09:37:43.865Z,1001.33
2017-07-22T09:40:09.665Z,1001.52
2017-07-22T09:42:36.036Z,1001.44
2017-07-22T09:45:02.073Z,1001.4
2017-07-22T09:47:27.854Z,1001.49
2017-07-22T09:49:53.670Z,1001.48
2017-07-22T09:52:19.867Z,1001.33
2017-07-22T09:54:45.819Z,1001.35
2017-07-22T09:57:03.050Z,1001.19
2017-07-22T09:59:28.655Z,1001.3
2017-07-22T10:01:54.368Z,1001.31
2017-07-22T10:03:56.108Z,1001.41
2017-07-22T10:06:21.764Z,1001.43
2017-07-22T10:08:38.812Z,1001.32
2017-07-22T10:11:04.397Z,1001.29
2017-07-22T10:13:29.937Z,1001.38
2017-07-22T10:15:55.445Z,1001.38
2017-07-22T10:18:20.977Z,1001.36
2017-07-22T10:20:46.456Z,1001.36
2017-07-22T10:23:11.952Z,1001.35
2017-07-22T10:25:37.385Z,1001.27
2017-07-22T10:28:02.857Z,1001.28
2017-07-22T10:30:28.350Z,1001.24
2017-07-22T10:32:53.904Z,1001.22
2017-07-22T10:35:19.467Z,1001.12
2017-07-22T10:37:44.959Z,1001.13
2017-07-22T10:40:10.471Z,1001.14
2017-07-22T10:42:35.962Z,1001.2
2017-07-22T10:45:01.833Z,1001.15
2017-07-22T10:47:30.323Z,1001.13
2017-07-22T10:49:56.049Z,1001.1
2017-07-22T10:52:23.503Z,1001.16
2017-07-22T10:54:49.028Z,1001.12
2017-07-22T10:57:14.818Z,1001.09
2017-07-22T10:59:31.770Z,1001.08
2017-07-22T11:01:57.188Z,1001.08
2017-07-22T11:04:25.532Z,1001.05
2017-07-22T11:06:51.236Z,1001.01
2017-07-22T11:09:16.883Z,1001.06
2017-07-22T11:11:43.408Z,1001.03
2017-07-22T11:14:08.891Z,1001.06
2017-07-22T11:16:41.511Z,1001.08
2017-07-22T11:18:54.772Z,1001.11
2017-07-22T11:21:20.240Z,1001.07
2017-07-22T11:23:45.631Z,1001.04
2017-07-22T11:26:11.018Z,1001.01
2017-07-22T11:28:36.408Z,1001.01
2017-07-22T11:30:53.262Z,1000.98
2017-07-22T11:33:19.041Z,1000.95
2017-07-22T11:35:45.949Z,1000.93
2017-07-22T11:38:11.353Z,1000.85
2017-07-22T11:43:48.657Z,1000.86
2017-07-22T11:46:14.084Z,1000.82
2017-07-22T11:48:39.547Z,1000.84
2017-07-22T11:50:56.452Z,1000.83
2017-07-22T11:53:13.346Z,1000.81
2017-07-22T11:55:30.231Z,1000.81
2017-07-22T11:57:55.610Z,1000.76
2017-07-22T12:00:21.091Z,1000.66
2017-07-22T12:02:46.520Z,1000.6
2017-07-22T12:05:11.927Z,1000.6
2017-07-22T12:07:37.394Z,1000.66
2017-07-22T12:10:02.741Z,1000.51
2017-07-22T12:12:28.202Z,1000.52
2017-07-22T12:14:47.032Z,1000.45
2017-07-22T12:17:12.888Z,1000.49
2017-07-22T12:19:38.349Z,1000.55
2017-07-22T12:22:03.678Z,1000.53
2017-07-22T12:24:29.133Z,1000.56
2017-07-22T12:26:54.509Z,1000.54
2017-07-22T12:29:21.212Z,1000.57
2017-07-22T12:31:46.481Z,1000.59
2017-07-22T12:34:11.917Z,1000.55
2017-07-22T12:36:37.484Z,1000.49
2017-07-22T12:39:03.433Z,1000.47
2017-07-22T12:41:29.435Z,1000.49
2017-07-22T12:43:56.072Z,1000.48
2017-07-22T12:46:12.556Z,1000.37
2017-07-22T12:48:46.943Z,1000.49
2017-07-22T12:51:17.143Z,1000.45
2017-07-22T12:53:42.548Z,1000.43
2017-07-22T12:56:07.902Z,1000.41
2017-07-22T12:58:33.385Z,1000.36
2017-07-22T13:00:39.459Z,1000.3
2017-07-22T13:03:05.271Z,1000.35
2017-07-22T13:05:32.458Z,1000.33
2017-07-22T13:07:58.862Z,1000.36
2017-07-22T13:10:24.591Z,1000.32
2017-07-22T13:12:52.860Z,1000.29
2017-07-22T13:15:19.005Z,1000.27
2017-07-22T13:17:51.967Z,1000.29
2017-07-22T13:20:17.880Z,1000.33
2017-07-22T13:22:44.133Z,1000.32
2017-07-22T13:25:17.357Z,1000.32
2017-07-22T13:27:45.792Z,1000.42
2017-07-22T13:30:11.390Z,1000.41
2017-07-22T13:32:41.024Z,1000.4
2017-07-22T13:35:06.298Z,1000.41
2017-07-22T13:37:31.674Z,1000.37
2017-07-22T13:39:57.616Z,1000.38
2017-07-22T13:42:23.837Z,1000.4
2017-07-22T13:44:50.728Z,1000.39
2017-07-22T13:47:16.612Z,1000.35
2017-07-22T13:49:42.281Z,1000.29
2017-07-22T13:52:07.968Z,1000.34
2017-07-22T13:54:33.401Z,1000.32
2017-07-22T13:56:59.497Z,1000.27
2017-07-22T13:59:25.550Z,1000.32
2017-07-22T14:01:52.928Z,1000.21
2017-07-22T14:04:18.501Z,1000.15
2017-07-22T14:06:47.259Z,1000.06
2017-07-22T14:09:13.694Z,1000.07
2017-07-22T14:11:40.743Z,1000.05
2017-07-22T14:14:06.020Z,1000
2017-07-22T14:16:31.387Z,1000.03
2017-07-22T14:18:56.956Z,1000.02
2017-07-22T14:21:22.522Z,999.95
2017-07-22T14:23:47.761Z,999.98
2017-07-22T14:26:14.167Z,999.97
2017-07-22T14:28:41.929Z,999.97
2017-07-22T14:31:07.293Z,1000.01
2017-07-22T14:33:33.477Z,1000
2017-07-22T14:35:59.134Z,999.95
2017-07-22T14:38:24.781Z,999.98
2017-07-22T14:40:50.862Z,999.9
2017-07-22T14:43:16.446Z,999.91
2017-07-22T14:45:41.686Z,999.85
2017-07-22T14:48:06.881Z,999.84
2017-07-22T14:50:32.137Z,999.78
2017-07-22T14:52:58.208Z,999.74
2017-07-22T14:55:24.596Z,999.73
2017-07-22T14:57:50.530Z,999.75
2017-07-22T15:00:16.258Z,999.68
2017-07-22T15:02:43.398Z,999.55
2017-07-22T15:05:07.957Z,999.5
2017-07-22T15:07:33.176Z,999.46
2017-07-22T15:09:47.057Z,999.46
2017-07-22T15:11:58.011Z,999.44
2017-07-22T15:14:23.404Z,999.48
2017-07-22T15:16:48.832Z,999.45
2017-07-22T15:19:31.248Z,999.46
2017-07-22T15:22:04.220Z,999.45
2017-07-22T15:24:30.246Z,999.45
2017-07-22T15:26:56.386Z,999.46
2017-07-22T15:29:21.353Z,999.49
2017-07-22T15:31:46.389Z,999.49
2017-07-22T15:34:03.020Z,999.47
2017-07-22T15:36:28.094Z,999.46
2017-07-22T15:38:53.197Z,999.5
2017-07-22T15:41:18.346Z,999.52
2017-07-22T15:43:43.490Z,999.46
2017-07-22T15:46:08.669Z,999.52
2017-07-22T15:48:33.872Z,999.54
2017-07-22T15:50:58.993Z,999.46
2017-07-22T15:53:24.152Z,999.47
2017-07-22T15:55:26.299Z,999.47
2017-07-22T15:57:51.482Z,999.4
2017-07-22T16:00:16.589Z,999.5
2017-07-22T16:02:24.758Z,999.5
2017-07-22T16:04:49.865Z,999.43
2017-07-22T16:07:06.472Z,999.48
2017-07-22T16:09:31.590Z,999.51
2017-07-22T16:11:48.218Z,999.42
2017-07-22T16:14:13.290Z,999.39
2017-07-22T16:16:38.411Z,999.43
2017-07-22T16:19:03.476Z,999.4
2017-07-22T16:21:28.510Z,999.39
2017-07-22T16:23:45.073Z,999.41
2017-07-22T16:25:46.706Z,999.44
2017-07-22T16:28:11.771Z,999.48
2017-07-22T16:30:36.732Z,999.45
2017-07-22T16:32:53.229Z,999.4
2017-07-22T16:35:18.226Z,999.49
2017-07-22T16:37:43.238Z,999.42
2017-07-22T16:40:08.264Z,999.39
2017-07-22T16:42:33.306Z,999.37
2017-07-22T16:44:58.332Z,999.45
2017-07-22T16:47:14.825Z,999.4
2017-07-22T16:49:39.784Z,999.36
2017-07-22T16:51:56.250Z,999.36
2017-07-22T16:54:21.243Z,999.38
2017-07-22T16:56:46.195Z,999.33
2017-07-22T16:59:02.671Z,999.31
2017-07-22T17:01:27.686Z,999.23
2017-07-22T17:03:44.171Z,999.22
2017-07-22T17:06:09.154Z,999.17
2017-07-22T17:08:25.589Z,999.19
2017-07-22T17:10:50.502Z,999.25
2017-07-22T17:13:15.459Z,999.21
2017-07-22T17:15:40.422Z,999.21
2017-07-22T17:18:05.393Z,999.15
2017-07-22T17:20:30.361Z,999.22
2017-07-22T17:22:56.318Z,999.17
2017-07-22T17:25:21.329Z,999.17
2017-07-22T17:27:37.845Z,999.11
2017-07-22T17:30:02.842Z,999.12
2017-07-22T17:32:27.775Z,999.11
2017-07-22T17:34:52.788Z,999.04
2017-07-22T17:37:17.795Z,999.02
2017-07-22T17:39:42.756Z,998.99
2017-07-22T17:41:59.266Z,998.98
2017-07-22T17:44:24.238Z,999.01
2017-07-22T17:46:49.205Z,999.02
2017-07-22T17:49:14.200Z,999.02
2017-07-22T17:51:39.164Z,999.03
2017-07-22T17:54:04.114Z,999.06
2017-07-22T17:56:29.100Z,999.06
2017-07-22T17:58:54.009Z,999.06
2017-07-22T18:01:18.923Z,999.11
2017-07-22T18:03:35.369Z,999.14
2017-07-22T18:06:00.326Z,999.12
2017-07-22T18:08:25.244Z,999.15
2017-07-22T18:10:50.176Z,999.17
2017-07-22T18:13:15.150Z,999.17
2017-07-22T18:15:31.584Z,999.21
2017-07-22T18:17:56.488Z,999.2
2017-07-22T18:20:21.424Z,999.18
2017-07-22T18:22:46.487Z,999.19
2017-07-22T18:25:11.491Z,999.15
2017-07-22T18:27:36.515Z,999.14
2017-07-22T18:30:01.431Z,999.14
2017-07-22T18:32:26.349Z,999.14
2017-07-22T18:34:51.381Z,999.25
2017-07-22T18:37:16.291Z,999.28
2017-07-22T18:39:41.234Z,999.29
2017-07-22T18:41:52.160Z,999.29
2017-07-22T18:44:17.059Z,999.31
2017-07-22T18:46:41.942Z,999.34
2017-07-22T18:49:06.718Z,999.31
2017-07-22T18:51:31.647Z,999.35
2017-07-22T18:53:56.684Z,999.34
2017-07-22T18:56:21.450Z,999.38
2017-07-22T18:58:46.345Z,999.38
2017-07-22T19:01:11.096Z,999.32
2017-07-22T19:03:35.905Z,999.37
2017-07-22T19:06:00.741Z,999.36
2017-07-22T19:08:25.710Z,999.31
2017-07-22T19:10:50.672Z,999.22
2017-07-22T19:13:15.405Z,999.13
2017-07-22T19:15:40.183Z,999
2017-07-22T19:18:06.637Z,998.98
2017-07-22T19:20:33.312Z,999.02
2017-07-22T19:22:57.608Z,998.99
2017-07-22T19:25:22.412Z,998.95
2017-07-22T19:27:47.147Z,998.93
2017-07-22T19:30:11.928Z,998.84
2017-07-22T19:32:36.746Z,998.77
2017-07-22T19:35:01.790Z,998.71
2017-07-22T19:37:26.628Z,998.67
2017-07-22T19:39:51.382Z,998.72
2017-07-22T19:42:16.103Z,998.69
2017-07-22T19:44:40.898Z,998.68
2017-07-22T19:46:57.211Z,998.6
2017-07-22T19:49:22.009Z,998.65
2017-07-22T19:51:47.200Z,998.66
2017-07-22T19:54:13.041Z,998.64
2017-07-22T19:56:38.020Z,998.66
2017-07-22T19:58:54.425Z,998.69
2017-07-22T20:01:19.228Z,998.72
2017-07-22T20:03:44.238Z,998.72
2017-07-22T20:06:09.360Z,998.81
2017-07-22T20:08:19.421Z,998.83
2017-07-22T20:10:35.715Z,998.77
2017-07-22T20:13:00.466Z,998.77
2017-07-22T20:15:25.197Z,998.75
2017-07-22T20:17:41.482Z,998.79
2017-07-22T20:20:06.169Z,998.81
2017-07-22T20:22:30.903Z,998.8
2017-07-22T20:24:55.632Z,998.8
2017-07-22T20:27:11.850Z,998.78
2017-07-22T20:29:36.653Z,998.83
2017-07-22T20:32:01.458Z,998.98
2017-07-22T20:35:53.640Z,999.07
2017-07-22T20:38:18.506Z,999.07
2017-07-22T20:40:43.152Z,999.12
2017-07-22T20:43:07.842Z,999.16
2017-07-22T20:45:32.689Z,999.2
2017-07-22T20:47:57.545Z,999.18
2017-07-22T20:50:07.509Z,999.23
2017-07-22T20:52:32.214Z,999.34
2017-07-22T20:54:48.449Z,999.23
2017-07-22T20:56:58.448Z,999.36
2017-07-22T20:59:23.212Z,999.41
2017-07-22T21:01:39.436Z,999.43
2017-07-22T21:03:55.640Z,999.52
2017-07-22T21:06:20.305Z,999.52
2017-07-22T21:10:21.561Z,999.57
2017-07-22T21:12:46.179Z,999.6
2017-07-22T21:15:10.824Z,999.68
2017-07-22T21:17:35.537Z,999.68
2017-07-22T21:20:00.220Z,999.73
2017-07-22T21:22:24.862Z,999.72
2017-07-22T21:24:49.504Z,999.74
2017-07-22T21:27:14.299Z,999.73
2017-07-22T21:29:38.897Z,999.76
2017-07-22T21:32:03.629Z,999.77
2017-07-22T21:34:28.280Z,999.81
2017-07-22T21:36:52.890Z,999.82
2017-07-22T21:39:17.522Z,999.87
2017-07-22T21:41:43.456Z,999.79
2017-07-22T21:44:08.027Z,999.78
2017-07-22T21:46:32.615Z,999.79
2017-07-22T21:48:57.222Z,999.72
2017-07-22T21:51:21.982Z,999.71
2017-07-22T21:53:46.351Z,999.66
2017-07-22T21:56:11.061Z,999.75
2017-07-22T21:58:37.443Z,999.78
2017-07-22T22:01:02.021Z,999.78
2017-07-22T22:03:26.638Z,999.77
2017-07-22T22:05:51.177Z,999.66
2017-07-22T22:08:15.720Z,999.7
2017-07-22T22:10:40.300Z,999.65
2017-07-22T22:13:04.901Z,999.65
2017-07-22T22:15:29.471Z,999.77
2017-07-22T22:17:54.026Z,999.76
2017-07-22T22:20:18.667Z,999.79
2017-07-22T22:22:43.196Z,999.8
2017-07-22T22:25:07.746Z,999.82
2017-07-22T22:27:32.305Z,999.87
2017-07-22T22:29:56.830Z,999.95
2017-07-22T22:32:21.346Z,999.98
2017-07-22T22:34:46.058Z,1000.08
2017-07-22T22:37:10.655Z,1000.15
2017-07-22T22:39:35.185Z,1000.25
2017-07-22T22:41:59.684Z,1000.27
2017-07-22T22:44:24.194Z,1000.32
2017-07-22T22:46:48.717Z,1000.42
2017-07-22T22:49:13.242Z,1000.45
2017-07-22T22:51:37.813Z,1000.45
2017-07-22T22:54:02.346Z,1000.5
2017-07-22T22:56:26.905Z,1000.56
2017-07-22T22:58:51.434Z,1000.57
2017-07-22T23:02:51.750Z,1000.61
2017-07-22T23:05:16.294Z,1000.67
2017-07-22T23:07:40.797Z,1000.74
2017-07-22T23:10:05.277Z,1000.69
2017-07-22T23:12:29.783Z,1000.7
2017-07-22T23:14:22.788Z,1000.73
2017-07-22T23:16:38.850Z,1000.71
2017-07-22T23:19:03.282Z,1000.78
2017-07-22T23:21:27.764Z,1000.86
2017-07-22T23:23:52.229Z,1000.93
2017-07-22T23:26:16.670Z,1001
2017-07-22T23:28:32.652Z,1001.06
2017-07-22T23:30:48.586Z,1000.94
2017-07-22T23:33:13.033Z,1001.05
2017-07-22T23:35:20.556Z,1000.99
2017-07-22T23:37:44.983Z,1001.08
2017-07-22T23:40:09.403Z,1001.18
2017-07-22T23:42:25.381Z,1001.24
2017-07-22T23:44:49.833Z,1001.25
2017-07-22T23:47:14.269Z,1001.22
2017-07-22T23:49:38.718Z,1001.16
2017-07-22T23:52:03.132Z,1001.26
2017-07-22T23:54:27.574Z,1001.23
2017-07-22T23:56:43.564Z,1001.34
2017-07-22T23:59:08.044Z,1001.37
